Time;durP1;ratioP1;P1;durP2;ratioP2;P2;SDS_P1;SDS_P2;PMS_P1;PMS_P2;Temp;Humidity;BMP_temperature;BMP_pressure;BME280_temperature;BME280_humidity;BME280_pressure;Samples;Min_cycle;Max_cycle;Signal;HPM_P1;HPM_P2
2022/06/03 00:00:21;;;;;;;5.75;2.30;;;10.90;67.20;;;;;;4098436;28;20449;-87
2022/06/03 00:02:40;;;;;;;8.43;2.20;;;10.90;67.40;;;;;;4100374;28;20027;-88
2022/06/03 00:04:58;;;;;;;7.32;2.47;;;10.90;67.60;;;;;;4072063;29;20405;-87
2022/06/03 00:07:02;;;;;;;6.03;2.58;;;10.90;67.70;;;;;;4101641;28;20776;-87
2022/06/03 00:09:21;;;;;;;7.88;2.72;;;10.80;67.50;;;;;;4099524;28;20094;-87
2022/06/03 00:11:27;;;;;;;9.93;2.47;;;10.80;67.60;;;;;;4083851;29;20063;-87
2022/06/03 00:13:59;;;;;;;3.47;1.98;;;10.80;67.50;;;;;;4075097;28;20452;-87
2022/06/03 00:16:05;;;;;;;9.40;2.30;;;10.80;67.70;;;;;;4097434;28;20054;-88
2022/06/03 00:18:48;;;;;;;6.97;2.15;;;10.70;67.50;;;;;;4094899;28;20151;-88
2022/06/03 00:20:56;;;;;;;6.40;2.28;;;10.70;67.80;;;;;;4085780;28;20055;-87
2022/06/03 00:23:22;;;;;;;6.22;2.13;;;10.70;67.50;;;;;;4095273;28;20660;-87
2022/06/03 00:25:53;;;;;;;4.90;1.90;;;10.70;67.50;;;;;;4098805;28;20058;-88
2022/06/03 00:28:02;;;;;;;6.28;1.92;;;10.60;67.60;;;;;;4067965;29;20042;-87
2022/06/03 00:30:14;;;;;;;7.55;2.00;;;10.60;67.60;;;;;;4079646;28;20519;-88
2022/06/03 00:32:38;;;;;;;5.82;2.17;;;10.60;67.60;;;;;;4081654;28;20023;-87
2022/06/03 00:34:49;;;;;;;5.15;1.70;;;10.60;67.80;;;;;;4094171;28;20495;-88
2022/06/03 00:36:58;;;;;;;10.30;2.03;;;10.60;67.80;;;;;;4077347;28;20047;-87
2022/06/03 00:39:14;;;;;;;7.78;2.28;;;10.60;67.70;;;;;;4070082;29;20020;-88
2022/06/03 00:41:36;;;;;;;6.82;2.03;;;10.60;67.90;;;;;;4099172;28;20063;-88
2022/06/03 00:43:50;;;;;;;11.40;2.58;;;10.60;68.70;;;;;;4095672;28;20066;-88
2022/06/03 00:45:53;;;;;;;4.75;2.20;;;10.50;67.80;;;;;;4083386;28;20023;-87
2022/06/03 00:48:23;;;;;;;9.55;2.00;;;10.50;67.80;;;;;;4087003;28;20110;-88
2022/06/03 00:50:42;;;;;;;7.30;2.00;;;10.50;68.10;;;;;;4084475;28;20039;-88
2022/06/03 00:52:55;;;;;;;8.35;2.25;;;10.50;67.90;;;;;;4094862;28;20614;-88
2022/06/03 00:55:17;;;;;;;8.23;2.55;;;10.50;67.80;;;;;;4092198;28;20030;-89
2022/06/03 00:57:33;;;;;;;9.00;2.17;;;10.40;68.00;;;;;;4073103;28;20035;-88
2022/06/03 00:59:56;;;;;;;6.25;2.30;;;10.40;67.80;;;;;;4099665;28;20046;-87
2022/06/03 01:02:26;;;;;;;8.63;2.28;;;10.40;68.00;;;;;;4081628;28;20102;-88
2022/06/03 01:05:04;;;;;;;3.95;1.92;;;10.40;68.00;;;;;;4085811;28;20035;-88
2022/06/03 01:07:24;;;;;;;8.95;2.42;;;10.40;68.00;;;;;;4078827;28;20107;-87
2022/06/03 01:09:46;;;;;;;7.70;2.42;;;10.30;67.80;;;;;;4097025;28;20443;-88
2022/06/03 01:11:50;;;;;;;8.18;2.22;;;10.30;67.90;;;;;;4094573;28;20070;-87
2022/06/03 01:14:36;;;;;;;7.88;2.35;;;10.20;67.80;;;;;;4092266;28;20076;-88
2022/06/03 01:16:56;;;;;;;6.45;2.38;;;10.20;68.20;;;;;;4090492;28;20035;-88
2022/06/03 01:19:13;;;;;;;8.05;2.60;;;10.20;68.30;;;;;;4075844;28;20039;-88
2022/06/03 01:21:45;;;;;;;6.35;2.35;;;10.20;68.30;;;;;;4101176;28;20026;-88
2022/06/03 01:23:56;;;;;;;7.22;2.60;;;10.20;68.50;;;;;;4078439;29;20054;-88
2022/06/03 01:26:15;;;;;;;10.13;2.80;;;10.20;68.50;;;;;;4097552;28;20047;-87
2022/06/03 01:28:45;;;;;;;9.05;2.58;;;10.10;68.70;;;;;;4091799;28;20042;-87
2022/06/03 01:31:01;;;;;;;5.55;2.78;;;10.10;68.50;;;;;;4093511;28;20102;-87
2022/06/03 01:33:07;;;;;;;8.90;3.00;;;10.00;68.40;;;;;;4064063;29;20083;-88
2022/06/03 01:35:20;;;;;;;8.30;2.55;;;10.10;68.40;;;;;;4095238;28;20030;-90
2022/06/03 01:37:39;;;;;;;9.50;2.80;;;10.00;68.50;;;;;;4077957;28;20028;-90
2022/06/03 01:40:01;;;;;;;6.05;2.33;;;10.00;68.40;;;;;;4097330;28;20054;-88
2022/06/03 01:42:26;;;;;;;8.75;2.45;;;10.00;68.50;;;;;;4092689;28;20661;-88
2022/06/03 01:44:48;;;;;;;9.38;2.63;;;10.00;68.60;;;;;;4097156;28;20019;-87
2022/06/03 01:47:07;;;;;;;4.95;2.10;;;9.90;68.60;;;;;;4079531;28;20049;-88
2022/06/03 01:49:18;;;;;;;5.30;2.47;;;9.90;68.60;;;;;;4077508;28;20198;-89
2022/06/03 01:51:40;;;;;;;6.90;2.75;;;9.90;68.70;;;;;;4101005;28;20043;-89
2022/06/03 01:53:53;;;;;;;8.13;2.65;;;9.80;68.70;;;;;;4100420;28;20054;-89
2022/06/03 01:56:31;;;;;;;7.75;2.67;;;9.80;68.60;;;;;;4097062;28;20050;-88
2022/06/03 01:58:41;;;;;;;6.72;2.45;;;9.80;68.70;;;;;;4098510;28;20050;-89
2022/06/03 02:00:58;;;;;;;10.93;3.00;;;9.80;69.20;;;;;;4095304;28;20106;-88
2022/06/03 02:03:28;;;;;;;10.10;2.55;;;9.70;68.40;;;;;;4096905;28;20039;-88
2022/06/03 02:05:56;;;;;;;8.02;2.67;;;9.70;68.50;;;;;;4098471;28;20042;-87
2022/06/03 02:08:16;;;;;;;13.15;3.20;;;9.70;68.60;;;;;;4098683;28;20084;-88
2022/06/03 02:10:42;;;;;;;7.47;2.78;;;9.70;68.40;;;;;;4097532;28;20081;-89
2022/06/03 02:13:07;;;;;;;9.50;2.42;;;9.60;68.60;;;;;;4067575;29;20505;-87
2022/06/03 02:15:19;;;;;;;9.43;2.72;;;9.60;68.80;;;;;;4095030;28;20055;-88
2022/06/03 02:17:54;;;;;;;6.07;3.17;;;9.60;68.70;;;;;;4096777;28;20094;-87
2022/06/03 02:20:13;;;;;;;11.05;2.50;;;9.60;68.90;;;;;;4080116;28;20076;-87
2022/06/03 02:22:23;;;;;;;6.50;2.85;;;9.60;68.80;;;;;;4076768;28;20098;-87
2022/06/03 02:24:43;;;;;;;6.78;2.45;;;9.50;68.90;;;;;;4101919;28;20563;-87
2022/06/03 02:26:43;;;;;;;11.27;3.15;;;9.50;69.00;;;;;;4101837;28;20043;-88
2022/06/03 02:31:27;;;;;;;14.65;3.08;;;9.50;69.40;;;;;;4098159;28;20031;-88
2022/06/03 02:33:57;;;;;;;7.57;2.70;;;9.50;69.20;;;;;;4073615;29;20031;-87
2022/06/03 02:36:45;;;;;;;5.95;2.83;;;9.50;69.30;;;;;;4084044;28;20078;-87
2022/06/03 02:39:01;;;;;;;6.15;2.40;;;9.60;69.60;;;;;;4096481;28;20034;-86
2022/06/03 02:41:28;;;;;;;5.75;2.90;;;9.50;69.50;;;;;;4099946;28;20249;-87
2022/06/03 02:43:53;;;;;;;8.13;2.88;;;9.50;69.70;;;;;;4101397;28;20023;-87
2022/06/03 02:46:28;;;;;;;8.63;2.30;;;9.50;69.60;;;;;;4098944;28;20039;-87
2022/06/03 02:48:32;;;;;;;7.65;2.70;;;9.50;69.80;;;;;;4094419;28;20035;-87
2022/06/03 02:50:32;;;;;;;;;;;9.50;69.60;;;;;;4075569;28;20039;-87
2022/06/03 02:52:58;;;;;;;6.55;2.40;;;9.50;70.20;;;;;;4101107;28;19944;-87
2022/06/03 02:55:23;;;;;;;5.90;2.50;;;9.50;69.50;;;;;;4101780;28;21771;-87
2022/06/03 02:57:31;;;;;;;9.00;2.80;;;9.50;69.80;;;;;;4098615;28;20515;-87
2022/06/03 02:59:32;;;;;;;12.82;2.50;;;9.50;69.80;;;;;;4104547;28;20031;-87
2022/06/03 03:01:35;;;;;;;9.88;2.58;;;9.60;69.90;;;;;;4081304;28;20126;-87
2022/06/03 03:04:00;;;;;;;9.38;3.00;;;9.50;69.90;;;;;;4084095;28;20035;-87
2022/06/03 03:06:09;;;;;;;9.88;2.67;;;9.60;70.10;;;;;;4096263;28;20030;-86
2022/06/03 03:08:30;;;;;;;9.77;2.90;;;9.50;70.00;;;;;;4084469;28;20061;-87
2022/06/03 03:10:55;;;;;;;7.97;3.08;;;9.60;70.10;;;;;;4099193;28;20065;-86
2022/06/03 03:13:23;;;;;;;7.47;2.80;;;9.50;70.30;;;;;;4097191;28;20030;-86
2022/06/03 03:15:52;;;;;;;8.63;2.65;;;9.50;70.20;;;;;;4096091;28;20023;-86
2022/06/03 03:18:18;;;;;;;7.88;2.50;;;9.60;70.40;;;;;;4084848;28;20050;-87
2022/06/03 03:20:49;;;;;;;6.18;2.50;;;9.50;70.10;;;;;;4099585;28;20037;-86
2022/06/03 03:23:11;;;;;;;5.78;2.10;;;9.60;70.20;;;;;;4083518;28;20112;-87
2022/06/03 03:25:27;;;;;;;4.63;2.20;;;9.50;70.00;;;;;;4088581;28;20107;-87
2022/06/03 03:28:21;;;;;;;9.02;2.50;;;9.50;70.00;;;;;;4087683;28;20735;-87
2022/06/03 03:30:30;;;;;;;6.15;2.47;;;9.50;70.00;;;;;;4034993;29;20051;-87
2022/06/03 03:32:46;;;;;;;8.23;2.88;;;9.50;69.90;;;;;;4095008;28;20071;-87
2022/06/03 03:35:09;;;;;;;5.60;2.58;;;9.50;69.80;;;;;;4100462;28;20037;-87
2022/06/03 03:37:22;;;;;;;7.47;2.40;;;9.50;69.90;;;;;;4102559;28;20380;-88
2022/06/03 03:39:46;;;;;;;4.90;2.20;;;9.50;69.80;;;;;;4099150;28;20155;-88
2022/06/03 03:41:46;;;;;;;;;;;9.50;69.80;;;;;;4099642;28;20522;-87
2022/06/03 03:44:05;;;;;;;8.90;2.70;;;9.60;70.30;;;;;;4097329;28;19987;-87
2022/06/03 03:46:38;;;;;;;6.90;3.08;;;9.50;69.90;;;;;;4069188;29;20039;-87
2022/06/03 03:48:44;;;;;;;6.35;2.83;;;9.50;69.90;;;;;;4084003;28;20027;-87
2022/06/03 03:51:07;;;;;;;5.22;2.60;;;9.50;69.80;;;;;;4065121;29;20038;-87
2022/06/03 03:53:29;;;;;;;8.38;3.58;;;9.50;70.00;;;;;;4091394;28;20034;-87
2022/06/03 03:55:42;;;;;;;7.28;2.90;;;9.50;69.90;;;;;;4097592;28;20400;-86
2022/06/03 03:58:13;;;;;;;5.38;2.80;;;9.50;70.00;;;;;;4095565;28;20071;-87
2022/06/03 04:00:47;;;;;;;6.65;3.10;;;9.50;70.10;;;;;;4079881;28;20488;-87
2022/06/03 04:03:19;;;;;;;8.43;3.45;;;9.50;70.20;;;;;;4099075;28;20027;-86
2022/06/03 04:05:38;;;;;;;8.40;3.17;;;9.50;70.20;;;;;;4080662;28;20031;-85
2022/06/03 04:07:42;;;;;;;7.75;2.88;;;9.50;70.20;;;;;;4089526;28;20393;-86
2022/06/03 04:10:03;;;;;;;8.73;3.45;;;9.50;70.10;;;;;;4084876;28;20054;-85
2022/06/03 04:12:41;;;;;;;10.73;3.45;;;9.50;70.20;;;;;;4078339;28;20039;-87
2022/06/03 04:15:08;;;;;;;9.70;2.80;;;9.60;70.30;;;;;;4085063;28;20043;-87
2022/06/03 04:17:47;;;;;;;8.32;3.28;;;9.60;70.30;;;;;;4080522;28;20045;-86
2022/06/03 04:20:22;;;;;;;7.85;3.05;;;9.60;70.30;;;;;;4096025;28;20053;-87
2022/06/03 04:23:06;;;;;;;6.40;3.00;;;9.60;70.40;;;;;;4096868;28;20070;-87
2022/06/03 04:25:53;;;;;;;7.40;3.17;;;9.60;70.50;;;;;;4072709;28;20026;-86
2022/06/03 04:28:38;;;;;;;11.70;3.08;;;9.70;70.80;;;;;;4080009;28;20089;-87
2022/06/03 04:31:46;;;;;;;5.82;3.10;;;9.70;71.00;;;;;;4085457;28;21105;-86
2022/06/03 04:34:46;;;;;;;7.38;3.60;;;9.70;71.00;;;;;;4019510;29;20033;-85
2022/06/03 04:37:33;;;;;;;11.65;3.67;;;9.80;71.20;;;;;;4099198;28;20042;-86
2022/06/03 04:40:06;;;;;;;7.03;3.13;;;9.80;71.00;;;;;;4100595;28;20338;-86
2022/06/03 04:43:02;;;;;;;9.55;3.03;;;9.80;70.80;;;;;;4101017;28;21065;-86
2022/06/03 04:46:00;;;;;;;4.05;2.90;;;9.90;70.80;;;;;;4028906;29;20044;-87
2022/06/03 04:48:57;;;;;;;13.77;2.83;;;9.90;70.80;;;;;;4093954;28;20061;-87
2022/06/03 04:51:50;;;;;;;7.53;3.10;;;10.00;70.90;;;;;;4095326;28;20052;-87
2022/06/03 04:54:17;;;;;;;8.68;2.83;;;10.00;71.00;;;;;;4084586;28;20059;-87
2022/06/03 04:57:10;;;;;;;8.27;3.33;;;10.00;70.70;;;;;;4082438;28;20031;-87
2022/06/03 04:59:38;;;;;;;4.63;2.67;;;10.10;71.10;;;;;;4102220;28;20122;-88
2022/06/03 05:02:16;;;;;;;7.97;3.10;;;10.10;71.00;;;;;;4073297;29;20024;-87
2022/06/03 05:04:54;;;;;;;7.32;2.65;;;10.20;71.40;;;;;;4102432;28;20027;-87
2022/06/03 05:07:30;;;;;;;4.60;2.58;;;10.20;71.40;;;;;;4082004;28;20042;-88
2022/06/03 05:10:08;;;;;;;8.23;2.58;;;10.20;71.20;;;;;;4105757;28;20047;-89
2022/06/03 05:12:36;;;;;;;13.18;2.75;;;10.30;72.10;;;;;;4090029;28;20066;-87
2022/06/03 05:14:56;;;;;;;6.72;2.80;;;10.30;71.10;;;;;;4061927;29;20102;-87
2022/06/03 05:17:13;;;;;;;8.85;2.85;;;10.30;71.20;;;;;;4103904;28;20586;-87
2022/06/03 05:19:41;;;;;;;6.32;3.08;;;10.30;71.10;;;;;;4091181;28;20026;-87
2022/06/03 05:22:03;;;;;;;6.90;2.70;;;10.40;71.30;;;;;;4090638;28;20506;-88
2022/06/03 05:24:41;;;;;;;8.43;3.10;;;10.40;71.30;;;;;;4087810;29;20059;-88
2022/06/03 05:27:12;;;;;;;9.13;2.72;;;10.50;71.40;;;;;;4040717;29;20569;-87
2022/06/03 05:29:37;;;;;;;10.82;3.17;;;10.50;71.10;;;;;;4088878;28;20036;-86
2022/06/03 05:32:15;;;;;;;9.32;3.10;;;10.50;70.90;;;;;;4087870;28;20038;-87
2022/06/03 05:34:18;;;;;;;10.88;2.40;;;10.60;70.80;;;;;;4088789;28;20055;-86
2022/06/03 05:36:37;;;;;;;;;;;10.60;70.60;;;;;;4087590;28;20038;-88
2022/06/03 05:39:14;;;;;;;7.63;2.75;;;10.60;70.80;;;;;;4095626;28;19925;-87
2022/06/03 05:44:12;;;;;;;6.68;2.75;;;10.70;70.60;;;;;;4109805;28;20030;-88
2022/06/03 05:46:27;;;;;;;8.18;2.80;;;10.70;70.70;;;;;;4081973;28;20122;-86
2022/06/03 05:48:46;;;;;;;8.80;2.85;;;10.80;70.40;;;;;;4083012;28;20249;-86
2022/06/03 05:51:06;;;;;;;8.10;2.78;;;10.90;70.20;;;;;;4084768;28;20084;-87
2022/06/03 05:53:17;;;;;;;9.73;2.67;;;10.90;70.20;;;;;;4086605;28;20039;-88
2022/06/03 05:55:36;;;;;;;7.80;2.72;;;10.90;70.10;;;;;;4102227;28;20023;-88
2022/06/03 05:57:53;;;;;;;17.65;2.67;;;11.00;69.90;;;;;;4076652;29;20048;-88
2022/06/03 06:00:29;;;;;;;5.30;2.10;;;11.00;69.60;;;;;;4088617;28;20032;-88
2022/06/03 06:02:48;;;;;;;6.88;2.38;;;11.00;69.40;;;;;;4020157;29;20081;-88
2022/06/03 06:05:13;;;;;;;6.43;2.33;;;11.10;69.40;;;;;;4083445;28;20047;-87
2022/06/03 06:07:26;;;;;;;7.32;2.03;;;11.10;69.40;;;;;;4106083;28;20410;-88
2022/06/03 06:09:39;;;;;;;6.03;2.30;;;11.10;69.20;;;;;;4087915;28;20039;-88
2022/06/03 06:12:17;;;;;;;5.85;2.15;;;11.20;69.60;;;;;;4106901;28;20038;-88
2022/06/03 06:14:50;;;;;;;6.53;2.42;;;11.20;69.20;;;;;;4087290;28;20075;-87
2022/06/03 06:16:52;;;;;;;10.18;2.15;;;11.30;69.50;;;;;;4105619;28;20031;-89
2022/06/03 06:19:51;;;;;;;8.80;2.30;;;11.40;69.80;;;;;;4076444;29;20050;-88
2022/06/03 06:22:10;;;;;;;9.15;2.47;;;11.50;69.80;;;;;;4036396;29;20032;-89
2022/06/03 06:24:15;;;;;;;8.85;2.42;;;11.60;69.60;;;;;;4095947;28;20031;-88
2022/06/03 06:26:26;;;;;;;11.88;2.33;;;11.70;69.60;;;;;;4091965;28;21064;-89
2022/06/03 06:29:03;;;;;;;7.90;2.15;;;11.80;69.50;;;;;;4091811;28;20451;-82
2022/06/03 06:31:11;;;;;;;8.32;2.55;;;11.90;68.70;;;;;;4092680;28;20294;-89
2022/06/03 06:33:14;;;;;;;8.98;2.60;;;12.10;68.90;;;;;;4097361;28;20038;-88
2022/06/03 06:35:49;;;;;;;6.55;2.30;;;12.20;68.70;;;;;;4076088;29;20535;-88
2022/06/03 06:37:49;;;;;;;;;;;12.30;68.20;;;;;;4070485;29;20784;-88
2022/06/03 06:40:37;;;;;;;8.82;2.30;;;12.40;67.80;;;;;;4106001;28;19941;-88
2022/06/03 06:43:08;;;;;;;9.43;2.42;;;12.40;67.00;;;;;;4083544;28;20040;-88
2022/06/03 06:45:46;;;;;;;5.53;2.22;;;12.50;66.60;;;;;;4087400;28;20027;-90
2022/06/03 06:48:18;;;;;;;4.03;1.92;;;12.60;66.10;;;;;;4088137;29;20032;-88
2022/06/03 06:50:31;;;;;;;7.22;2.10;;;12.60;65.70;;;;;;4094315;29;20043;-88
2022/06/03 06:52:44;;;;;;;5.87;2.40;;;12.80;65.70;;;;;;4108142;28;20039;-87
2022/06/03 06:54:55;;;;;;;5.90;2.13;;;12.80;66.10;;;;;;4087788;29;21594;-88
2022/06/03 06:57:03;;;;;;;10.18;2.20;;;12.90;66.00;;;;;;4106195;28;20035;-87
2022/06/03 06:59:10;;;;;;;4.10;1.60;;;13.00;65.70;;;;;;4071649;29;20403;-88
2022/06/03 07:01:16;;;;;;;3.58;2.10;;;13.10;65.40;;;;;;4087700;28;20059;-88
2022/06/03 07:03:24;;;;;;;4.70;2.08;;;13.10;65.10;;;;;;4080928;28;20031;-87
2022/06/03 07:05:46;;;;;;;6.65;2.47;;;13.20;64.80;;;;;;4072131;29;20040;-86
2022/06/03 07:08:04;;;;;;;7.65;2.17;;;13.30;64.60;;;;;;4102784;28;20491;-87
2022/06/03 07:10:14;;;;;;;8.73;2.20;;;13.40;63.50;;;;;;4071418;29;20111;-88
2022/06/03 07:12:18;;;;;;;9.93;2.38;;;13.40;63.30;;;;;;4105399;28;20064;-88
2022/06/03 07:14:24;;;;;;;10.05;2.13;;;13.40;63.30;;;;;;4091455;28;20047;-88
2022/06/03 07:21:58;;;;;;;7.45;2.10;;;13.50;62.90;;;;;;4107310;28;20035;-88
2022/06/03 07:24:09;;;;;;;5.72;2.25;;;13.60;63.10;;;;;;4107037;28;20031;-88
2022/06/03 07:26:28;;;;;;;7.38;2.25;;;13.60;62.40;;;;;;4088521;29;20023;-87
2022/06/03 07:28:50;;;;;;;8.73;2.45;;;13.60;62.30;;;;;;4103010;28;20039;-88
2022/06/03 07:30:57;;;;;;;7.10;2.05;;;13.70;62.20;;;;;;4106450;28;20031;-88
2022/06/03 07:33:07;;;;;;;4.95;2.03;;;13.70;62.10;;;;;;4104961;28;20031;-87
2022/06/03 07:35:18;;;;;;;6.03;2.33;;;13.70;61.60;;;;;;4090166;28;20028;-88
2022/06/03 07:37:28;;;;;;;7.93;2.13;;;13.80;61.30;;;;;;4088963;28;20107;-89
2022/06/03 07:39:56;;;;;;;4.57;1.92;;;13.80;61.60;;;;;;4103004;28;20023;-88
2022/06/03 07:42:06;;;;;;;2.55;1.63;;;13.80;61.20;;;;;;4081273;28;20045;-87
2022/06/03 07:44:12;;;;;;;8.65;2.72;;;13.90;61.20;;;;;;4105729;28;20039;-87
2022/06/03 07:46:33;;;;;;;4.50;1.90;;;13.90;61.50;;;;;;4104046;28;20054;-88
2022/06/03 07:48:34;;;;;;;6.65;2.30;;;14.00;61.20;;;;;;4075264;29;20034;-88
2022/06/03 07:50:42;;;;;;;6.93;2.20;;;14.00;61.60;;;;;;4089342;28;20139;-86
2022/06/03 07:52:48;;;;;;;5.63;2.17;;;14.10;61.10;;;;;;4124430;28;20019;-89
2022/06/03 07:54:55;;;;;;;5.75;2.00;;;14.20;61.00;;;;;;4090446;29;20055;-87
2022/06/03 07:57:08;;;;;;;8.63;2.22;;;14.20;60.90;;;;;;4103129;28;20063;-88
2022/06/03 07:59:19;;;;;;;3.55;1.52;;;14.30;60.70;;;;;;4071215;29;20118;-87
2022/06/03 08:01:22;;;;;;;5.40;1.83;;;14.30;60.10;;;;;;4100553;28;20027;-87
2022/06/03 08:03:25;;;;;;;5.18;1.90;;;14.40;60.60;;;;;;4082288;28;20054;-87
2022/06/03 08:05:26;;;;;;;4.63;1.63;;;14.50;61.00;;;;;;4086762;28;20034;-88
2022/06/03 08:12:27;;;;;;;8.10;1.92;;;14.80;59.60;;;;;;4106937;28;20034;-87
2022/06/03 08:14:28;;;;;;;5.32;1.92;;;14.80;59.20;;;;;;4088212;28;20032;-86
2022/06/03 08:16:34;;;;;;;5.72;1.58;;;14.90;58.90;;;;;;4073087;29;20532;-88
2022/06/03 08:18:40;;;;;;;6.55;1.95;;;15.00;58.80;;;;;;4089142;28;20470;-89
2022/06/03 08:20:51;;;;;;;4.97;1.75;;;15.00;58.20;;;;;;4101144;28;20641;-86
2022/06/03 08:22:53;;;;;;;7.07;1.90;;;15.10;58.10;;;;;;4070909;29;20146;-86
2022/06/03 08:24:59;;;;;;;3.67;1.53;;;15.10;58.30;;;;;;4085125;28;20023;-88
2022/06/03 08:27:12;;;;;;;4.63;1.80;;;15.10;58.40;;;;;;4088060;28;20035;-89
2022/06/03 08:29:31;;;;;;;3.78;1.50;;;15.30;58.10;;;;;;4099984;28;20598;-89
2022/06/03 08:31:32;;;;;;;5.35;1.88;;;15.30;58.40;;;;;;4083571;28;20040;-89
2022/06/03 08:33:51;;;;;;;8.00;2.22;;;15.40;58.00;;;;;;4088448;28;20031;-88
2022/06/03 08:35:51;;;;;;;5.45;1.63;;;15.40;57.50;;;;;;4074333;29;20197;-89
2022/06/03 08:37:58;;;;;;;6.63;1.67;;;15.50;58.00;;;;;;4108009;28;20042;-89
2022/06/03 08:40:02;;;;;;;3.65;1.52;;;15.60;58.00;;;;;;4078790;29;20027;-89
2022/06/03 08:42:27;;;;;;;9.40;1.98;;;15.60;57.40;;;;;;4110864;28;20026;-88
2022/06/03 08:44:42;;;;;;;7.75;1.75;;;15.70;57.50;;;;;;4090462;28;20500;-88
2022/06/03 08:47:12;;;;;;;6.00;1.83;;;15.80;57.80;;;;;;4097276;29;20027;-88
2022/06/03 08:49:18;;;;;;;6.95;1.88;;;15.90;57.10;;;;;;4108772;28;20026;-87
2022/06/03 08:51:34;;;;;;;7.07;1.58;;;16.00;57.20;;;;;;4089391;28;20534;-90
2022/06/03 08:53:51;;;;;;;4.72;1.90;;;16.00;57.10;;;;;;4092066;29;20538;-88
2022/06/03 08:55:59;;;;;;;4.40;1.58;;;16.10;57.30;;;;;;4111905;28;20082;-88
2022/06/03 08:58:22;;;;;;;5.13;1.70;;;16.20;57.50;;;;;;4077210;29;20048;-89
2022/06/03 09:00:29;;;;;;;6.40;2.00;;;16.30;57.10;;;;;;4103971;28;20553;-89
2022/06/03 09:02:37;;;;;;;5.32;2.45;;;16.40;57.00;;;;;;4107138;28;20082;-89
2022/06/03 09:04:49;;;;;;;5.93;2.05;;;16.40;56.40;;;;;;4107151;28;20078;-89
2022/06/03 09:06:50;;;;;;;5.97;2.20;;;16.50;56.20;;;;;;4084912;28;20039;-89
2022/06/03 09:09:01;;;;;;;6.35;2.05;;;16.60;56.10;;;;;;4105826;28;20035;-90
2022/06/03 09:11:14;;;;;;;7.47;2.33;;;16.60;55.50;;;;;;4103933;28;20084;-89
2022/06/03 09:13:42;;;;;;;9.68;2.40;;;16.60;55.30;;;;;;4087443;28;20050;-89
2022/06/03 09:15:45;;;;;;;5.32;2.17;;;16.70;55.70;;;;;;4096031;28;20036;-88
2022/06/03 09:17:54;;;;;;;5.13;2.25;;;16.80;56.20;;;;;;4084938;28;20102;-91
2022/06/03 09:20:00;;;;;;;4.53;1.88;;;16.90;55.30;;;;;;4089972;29;20036;-90
2022/06/03 09:22:10;;;;;;;8.80;2.70;;;16.90;55.10;;;;;;4103813;28;22067;-87
2022/06/03 09:24:20;;;;;;;5.07;2.42;;;16.90;55.10;;;;;;4102714;28;20053;-88
2022/06/03 09:26:28;;;;;;;3.78;1.70;;;17.00;55.00;;;;;;4104326;28;20031;-88
2022/06/03 09:28:35;;;;;;;5.22;1.90;;;17.10;55.00;;;;;;4101964;28;20035;-89
2022/06/03 09:30:39;;;;;;;7.60;2.10;;;17.20;54.60;;;;;;4069196;29;20031;-89
2022/06/03 09:32:49;;;;;;;4.10;1.80;;;17.20;54.40;;;;;;4102299;28;20030;-89
2022/06/03 09:34:53;;;;;;;7.20;2.25;;;17.30;54.10;;;;;;4105980;28;20030;-89
2022/06/03 09:36:54;;;;;;;4.00;2.00;;;17.40;53.40;;;;;;4103055;28;20026;-88
2022/06/03 09:39:03;;;;;;;4.18;2.05;;;17.40;53.20;;;;;;4085977;28;20457;-88
2022/06/03 09:41:04;;;;;;;5.22;2.35;;;17.50;53.30;;;;;;4089814;29;20035;-87
2022/06/03 09:43:12;;;;;;;3.65;2.00;;;17.50;53.70;;;;;;4071221;29;20182;-89
2022/06/03 09:45:16;;;;;;;3.47;1.92;;;17.60;53.20;;;;;;4088522;28;20027;-88
2022/06/03 09:47:20;;;;;;;7.78;2.00;;;17.60;53.10;;;;;;4103877;28;20035;-89
2022/06/03 09:49:21;;;;;;;6.75;2.15;;;17.70;53.30;;;;;;4075572;29;20032;-88
2022/06/03 09:51:55;;;;;;;10.85;2.97;;;17.70;53.20;;;;;;4102980;28;20042;-87
2022/06/03 09:53:46;;;;;;;4.50;2.20;;;17.80;53.10;;;;;;4099857;28;20652;-86
2022/06/03 09:56:00;;;;;;;4.47;1.90;;;17.90;52.60;;;;;;4090029;28;20042;-88
2022/06/03 09:58:03;;;;;;;4.80;1.55;;;18.00;52.30;;;;;;4083704;28;20050;-86
2022/06/03 10:00:21;;;;;;;3.50;1.65;;;18.00;52.10;;;;;;4090138;28;20023;-87
2022/06/03 10:02:22;;;;;;;8.43;1.92;;;18.10;50.90;;;;;;4078774;29;20091;-88
2022/06/03 10:04:23;;;;;;;4.22;1.90;;;18.20;51.30;;;;;;4102408;28;20732;-88
2022/06/03 10:07:00;;;;;;;5.90;1.90;;;18.20;50.20;;;;;;4068939;29;20159;-87
2022/06/03 10:13:42;;;;;;;5.60;1.90;;;18.30;50.40;;;;;;4008020;29;20065;-86
2022/06/03 10:15:48;;;;;;;5.18;1.83;;;18.40;50.80;;;;;;4092941;28;20114;-87
2022/06/03 10:17:50;;;;;;;7.93;2.38;;;18.40;50.80;;;;;;4089397;28;20027;-87
2022/06/03 10:19:51;;;;;;;5.70;1.73;;;18.40;49.90;;;;;;4071778;29;20028;-87
2022/06/03 10:21:54;;;;;;;5.82;1.95;;;18.50;49.60;;;;;;4088567;28;20038;-84
2022/06/03 10:24:02;;;;;;;4.90;1.60;;;18.50;49.60;;;;;;4102008;28;20038;-87
2022/06/03 10:26:04;;;;;;;3.78;1.90;;;18.60;50.00;;;;;;4082128;28;20031;-87
2022/06/03 10:28:08;;;;;;;3.40;1.95;;;18.60;50.00;;;;;;4086907;28;20036;-87
2022/06/03 10:30:09;;;;;;;6.40;2.03;;;18.60;50.10;;;;;;4104791;28;20030;-86
2022/06/03 10:32:12;;;;;;;6.38;2.30;;;18.70;50.20;;;;;;4086789;29;20039;-85
2022/06/03 10:34:17;;;;;;;5.28;1.95;;;18.70;49.80;;;;;;4102686;28;20050;-86
2022/06/03 10:36:18;;;;;;;5.03;1.80;;;18.80;49.60;;;;;;4103947;28;20038;-86
2022/06/03 10:38:21;;;;;;;10.25;1.98;;;18.90;49.50;;;;;;4071120;29;20931;-86
2022/06/03 10:40:26;;;;;;;3.95;1.70;;;18.90;49.00;;;;;;4086313;28;20093;-87
2022/06/03 10:42:28;;;;;;;3.13;1.80;;;18.90;49.00;;;;;;4086282;28;20038;-88
2022/06/03 10:44:36;;;;;;;4.57;2.10;;;19.00;48.70;;;;;;4102897;28;20121;-86
2022/06/03 10:46:36;;;;;;;4.88;2.47;;;19.10;48.20;;;;;;4081050;28;20569;-89
2022/06/03 10:48:37;;;;;;;7.50;2.20;;;19.10;47.80;;;;;;4086726;28;20032;-87
2022/06/03 10:50:38;;;;;;;7.10;2.30;;;19.10;47.80;;;;;;4087031;28;20363;-87
2022/06/03 11:02:06;;;;;;;3.22;1.60;;;19.20;47.10;;;;;;4104576;28;20019;-86
2022/06/03 11:04:07;;;;;;;5.90;1.95;;;19.20;48.40;;;;;;4091401;29;20058;-87
2022/06/03 11:06:14;;;;;;;5.22;2.10;;;19.20;47.90;;;;;;4092437;28;20634;-88
2022/06/03 11:08:14;;;;;;;4.53;1.83;;;19.20;47.40;;;;;;4100889;28;20118;-87
2022/06/03 11:10:15;;;;;;;12.15;6.78;;;19.30;46.70;;;;;;4097966;28;20050;-93
2022/06/03 11:12:23;;;;;;;4.80;2.30;;;19.30;46.80;;;;;;4092826;29;20174;-93
2022/06/03 11:14:41;;;;;;;4.10;1.83;;;19.30;46.80;;;;;;4105368;28;20037;-94
2022/06/03 11:16:54;;;;;;;3.45;1.70;;;19.30;47.10;;;;;;4075547;29;20035;-91
2022/06/03 11:18:57;;;;;;;4.47;1.95;;;19.30;46.70;;;;;;4091537;28;20105;-91
2022/06/03 11:21:16;;;;;;;6.63;1.92;;;19.30;47.40;;;;;;4077825;29;20032;-91
2022/06/03 11:23:18;;;;;;;6.93;2.13;;;19.30;47.80;;;;;;4073306;29;20035;-91
2022/06/03 11:25:27;;;;;;;3.35;1.73;;;19.30;47.00;;;;;;4076325;29;20027;-92
2022/06/03 11:27:39;;;;;;;5.72;1.83;;;19.30;47.00;;;;;;4085751;28;20077;-85
2022/06/03 11:29:44;;;;;;;4.00;1.77;;;19.40;47.10;;;;;;4091838;28;20027;-85
2022/06/03 11:31:47;;;;;;;6.50;2.10;;;19.40;47.10;;;;;;4089179;29;20471;-87
2022/06/03 11:34:08;;;;;;;2.88;2.00;;;19.40;46.70;;;;;;4076485;29;20032;-85
2022/06/03 11:36:25;;;;;;;6.25;1.88;;;19.50;45.90;;;;;;4082946;28;20042;-85
2022/06/03 11:38:34;;;;;;;4.15;2.10;;;19.50;45.90;;;;;;4050990;29;20036;-84
2022/06/03 11:40:39;;;;;;;4.82;2.15;;;19.50;46.50;;;;;;4096881;28;20073;-85
2022/06/03 11:42:48;;;;;;;5.22;2.00;;;19.50;46.40;;;;;;4082500;29;20031;-86
2022/06/03 11:44:55;;;;;;;6.63;1.92;;;19.50;47.10;;;;;;4082707;28;20034;-85
2022/06/03 11:47:02;;;;;;;3.95;1.70;;;19.50;46.50;;;;;;4102191;28;20045;-85
2022/06/03 11:49:05;;;;;;;4.82;1.83;;;19.50;46.00;;;;;;4070869;28;20110;-84
2022/06/03 11:51:08;;;;;;;5.03;1.73;;;19.50;45.90;;;;;;4082696;28;20132;-84
2022/06/03 11:53:09;;;;;;;9.10;2.00;;;19.50;46.20;;;;;;4092696;28;20735;-85
2022/06/03 11:55:11;;;;;;;6.93;1.90;;;19.50;46.70;;;;;;4085686;28;20050;-85
2022/06/03 11:57:13;;;;;;;4.13;1.73;;;19.50;46.80;;;;;;4085677;28;20460;-84
2022/06/03 11:59:16;;;;;;;3.65;1.90;;;19.50;47.10;;;;;;4095871;28;20205;-85
2022/06/03 12:01:26;;;;;;;3.30;1.67;;;19.50;47.10;;;;;;4087226;28;22150;-86
2022/06/03 12:03:55;;;;;;;4.03;1.98;;;19.50;47.00;;;;;;4098416;28;20396;-85
2022/06/03 12:06:01;;;;;;;6.35;2.10;;;19.50;45.80;;;;;;4071263;29;20142;-85
2022/06/03 12:08:17;;;;;;;4.75;1.90;;;19.50;46.00;;;;;;4103854;28;20039;-86
2022/06/03 12:10:26;;;;;;;3.88;2.00;;;19.40;45.90;;;;;;4087313;28;20111;-86
2022/06/03 12:14:46;;;;;;;3.53;1.60;;;19.40;45.90;;;;;;4099908;28;20495;-85
2022/06/03 12:17:15;;;;;;;2.90;1.77;;;19.30;45.80;;;;;;4097278;28;21320;-86
2022/06/03 12:19:35;;;;;;;7.68;2.05;;;19.30;46.10;;;;;;4056905;29;20039;-86
2022/06/03 12:21:43;;;;;;;2.55;1.98;;;19.20;46.60;;;;;;4078249;28;20152;-85
2022/06/03 12:23:50;;;;;;;6.60;2.35;;;19.10;46.30;;;;;;4102102;28;20030;-84
2022/06/03 12:25:51;;;;;;;4.95;2.47;;;19.10;46.40;;;;;;4101308;28;20030;-83